Sonic Adventure (DX): Time Rankings

Records: Times | Rings | Scores | Races | Bosses | Freestyle
Leaders: Times | Rings | Scores | Races | Bosses | Freestyle | Overall
Rank Player Percent Points Date
1 Gamepro011 99.0% 56 12-29-20
2 Niczur 98.5% 83 12-29-20
3 Sonicspeedruner 97.6% 137 12-29-20
4 Jawzun 93.7% 370 12-29-20
5 Dashjump 93.6% 372 12-29-20
6 Nim 92.7% 426 12-29-20
7 DarkPolarNight 92.7% 429 12-29-20
8 drminus 90.5% 556 12-29-20
9 F-Man 90.4% 562 12-29-20
10 THC98 90.0% 586 12-29-20
11 ike6252 88.1% 698 12-29-20
12 Avento128bits 87.8% 716 12-29-20
13 francisco 87.2% 751 12-29-20
14 DarkspinesSonic 86.8% 776 12-29-20
15 ethmar 86.7% 778 12-29-20
16 Marth 86.7% 782 12-29-20
17 frankoredstrato 85.4% 858 12-29-20
18 chainchump 83.8% 950 12-29-20
19 TheRealShadnic 83.6% 960 12-29-20
20 Paragod 82.5% 1028 12-29-20
21 HyperSonic7701 82.3% 1041 12-29-20
22 Calfd 81.9% 1060 12-29-20
23 Coolfansonic 79.4% 1207 12-29-20
24 InferSaime 79.0% 1230 12-29-20
25 xXMegaManXx 77.7% 1309 12-29-20
26 Stefan 77.6% 1312 12-29-20
27 PfoSonic 77.1% 1342 12-29-20
28 bertin 75.4% 1442 12-29-20
29 yoshifan 75.1% 1463 12-29-20
30 Dave Cramer 73.3% 1568 12-29-20
31 RPGnutter 73.2% 1575 12-29-20
32 sonicam 71.6% 1670 12-29-20
33 Cybrax 71.2% 1694 12-29-20
34 Dekuboy 70.2% 1751 12-29-20
35 CoEmpathy 69.6% 1785 12-29-20
36 Ring Rush 68.7% 1837 12-29-20
37 mike89 67.8% 1890 12-29-20
38 NintenDan 67.6% 1900 12-29-20
39 chaos shadow 67.5% 1906 12-29-20
40 a_moustache 66.6% 1962 12-29-20
41 SkyLights 64.2% 2102 12-29-20
42 iden1 63.8% 2125 12-29-20
43 Combo 62.8% 2188 12-29-20
44 SADXTryHard 60.5% 2323 12-29-20
45 P1 Pause 59.9% 2357 12-29-20
46 WeegeeZV 58.7% 2428 12-29-20
47 Groudon199 58.1% 2464 12-29-20
48 AxlThunder 57.7% 2484 12-29-20
49 Game_Complete 57.3% 2506 12-29-20
50 Shadow Jacky 57.2% 2517 12-29-20
51 VMU Player Banned 56.4% 2562 12-29-20
52 Thorn 56.1% 2579 12-29-20
53 SB737 54.9% 2648 12-29-20
54 The Knuckles Chao 54.7% 2660 12-29-20
55 SadisticMystic 54.6% 2666 12-29-20
56 Chao_Fan 54.6% 2670 12-29-20
57 Parax 54.3% 2688 12-29-20
58 Mastakirby 54.1% 2695 12-29-20
59 KinkyCadence 53.7% 2722 12-29-20
60 mauserman 53.6% 2725 12-29-20
61 LittleBigness 53.5% 2731 12-29-20
62 OmegaDJ 53.4% 2736 12-29-20
63 Psyknux 53.2% 2747 12-29-20
64 Auriman1 52.9% 2770 12-29-20
65 magnum12 52.7% 2777 12-29-20
66 Turbos 52.3% 2800 12-29-20
67 GerbilSoft 51.7% 2838 12-29-20
68 GreatStar 51.4% 2855 12-29-20
69 Webber3000 51.0% 2880 12-29-20
70 Hipertails12 50.6% 2905 12-29-20
71 N 50.2% 2926 12-29-20
72 SPVLABS 48.8% 3006 12-29-20
73 James_Bertolli 48.0% 3054 12-29-20
74 Cream147 47.7% 3075 12-29-20
75 welldooder64 46.9% 3122 12-29-20
76 Skylace 46.7% 3133 12-29-20
77 Omega Rafael Santos 46.6% 3140 12-29-20
78 Quartz 46.4% 3147 12-29-20
79 Diamond 46.3% 3154 12-29-20
80 Psymar 46.2% 3161 12-29-20
81 SonicWinDX 45.7% 3192 12-29-20
82 teamblackarms 45.2% 3223 12-29-20
83 Cyan Ryan 44.6% 3254 12-29-20
84 Andrea Ritsu 44.5% 3259 12-29-20
85 buddychaos0415 44.3% 3274 12-29-20
86 SilverSonic 43.8% 3304 12-29-20
87 sonicd5 43.4% 3329 12-29-20
88 paulie9990 43.3% 3332 12-29-20
89 SilvertheAlmighty 43.3% 3335 12-29-20
90 itsPersonnal 42.5% 3380 12-29-20
91 metanightmare22 42.4% 3384 12-29-20
92 lordmetalsonic 40.3% 3510 12-29-20
93 Arch 39.9% 3534 12-29-20
94 videogamemaster777 39.0% 3586 12-29-20
95 Termon 38.9% 3589 12-29-20
96 supersonicfan 38.6% 3609 12-29-20
97 Drakodan 38.1% 3639 12-29-20
98 LilZero 37.8% 3655 12-29-20
99 Kanimayo_Jp 37.8% 3656 12-29-20
100 supersonic465 37.5% 3674 12-29-20
101 FuzZerd 37.4% 3678 12-29-20
102 JamminX42 37.0% 3704 12-29-20
103 eggFL 36.9% 3710 12-29-20
104 BigAL49 36.6% 3725 12-29-20
105 Don 36.2% 3748 12-29-20
106 danieldude 36.1% 3758 12-29-20
107 Siavash Tazari 35.2% 3810 12-29-20
108 Zurggriff 35.0% 3818 12-29-20
109 Fr3nZy 35.0% 3819 12-29-20
110 f0rever_zer0 34.4% 3857 12-29-20
111 Cod4Scopes 34.1% 3871 12-29-20
112 Austinf 33.4% 3917 12-29-20
113 LinksDarkArrows 33.3% 3922 12-29-20
114 Therio 33.2% 3929 12-29-20
115 elecmouse101 32.6% 3963 12-29-20
116 Staf 32.2% 3983 12-29-20
117 ModifiedMonkee 31.9% 4003 12-29-20
118 R3FR4G 31.9% 4004 12-29-20
119 MiStEr_ShAoLiN 31.9% 4005 12-29-20
120 Twilisailor 31.5% 4027 12-29-20
121 BrokenArthritis 31.3% 4040 12-29-20
122 videogamer1014 31.2% 4042 12-29-20
123 Xia 30.7% 4072 12-29-20
124 AC-Tygo 30.6% 4079 12-29-20
125 welshmoose05 30.3% 4096 12-29-20
126 OddCook 29.8% 4127 12-29-20
127 The Great Lord Mick 29.4% 4149 12-29-20
128 Aitamen 29.0% 4171 12-29-20
129 Mcshuggets 29.0% 4176 12-29-20
130 Maxinfamily 28.8% 4186 12-29-20
131 Matt_TY 28.6% 4194 12-29-20
132 joecoolgames 28.4% 4207 12-29-20
133 dabestgamer 28.3% 4216 12-29-20
134 SuperBlitzCraig 28.0% 4232 12-29-20
135 Irregular Zero 27.9% 4240 12-29-20
136 SuperSonic101 27.0% 4288 12-29-20
137 Shadowthegreat 27.0% 4292 12-29-20
138 superjupi 26.9% 4294 12-29-20
139 Rolken 26.6% 4317 12-29-20
140 Hunters13 26.5% 4318 12-29-20
141 thewaytodawnnn 26.3% 4330 12-29-20
142 sonamyfan666 26.0% 4347 12-29-20
143 iarebored 25.9% 4358 12-29-20
144 koinu93 25.8% 4364 12-29-20
145 SaviourDC 25.7% 4368 12-29-20
146 Spinballwizard 25.6% 4372 12-29-20
147 SonicKnuckles 25.6% 4374 12-29-20
148 EngiNerd 24.6% 4431 12-29-20
149 adf 24.6% 4433 12-29-20
150 SonicAD 24.5% 4436 12-29-20
151 Pokemonmaster888 24.0% 4469 12-29-20
152 Megaman EXE565 23.7% 4485 12-29-20
153 The T 23.5% 4499 12-29-20
154 Sonic Singularity 22.9% 4533 12-29-20
155 Platformer 22.6% 4552 12-29-20
156 timpkmn89 22.4% 4564 12-29-20
157 SeaWolf 22.3% 4566 12-29-20
158 Swift Hobo 22.1% 4578 12-29-20
159 Sondow 21.4% 4619 12-29-20
160 Rickyman48 21.3% 4629 12-29-20
161 KitsuneYamaro 20.9% 4650 12-29-20
162 FoxBoy 20.8% 4657 12-29-20
163 Sm4sh 20.7% 4663 12-29-20
164 TFEC Headshot 20.3% 4687 12-29-20
165 Jerzia 20.2% 4692 12-29-20
166 Kogen Player Banned 19.8% 4715 12-29-20
167 Badlex727 19.6% 4729 12-29-20
168 Starlight Sable 19.5% 4730 12-29-20
169 IsisDazs 18.9% 4765 12-29-20
170 Powerjohn25 18.8% 4776 12-29-20
171 HyperSonic64 18.7% 4781 12-29-20
172 crazy1993 18.5% 4791 12-29-20
173 Modest 18.4% 4799 12-29-20
174 andres430 18.3% 4802 12-29-20
175 SonicU260 17.3% 4862 12-29-20
176 Swinkly 17.0% 4879 12-29-20
177 MPit08 17.0% 4881 12-29-20
178 iSonicKid2K 16.3% 4922 12-29-20
179 dShadow 16.1% 4933 12-29-20
180 Cutiefox 15.7% 4956 12-29-20
181 Miles9999 15.6% 4963 12-29-20
182 Chawkk 15.5% 4966 12-29-20
183 Monkeh 15.4% 4975 12-29-20
184 Crispian 15.3% 4979 12-29-20
185 DaDude 14.8% 5007 12-29-20
186 Drflash55 14.5% 5024 12-29-20
187 Bass 14.3% 5040 12-29-20
188 Destroyer121121 14.2% 5046 12-29-20
189 Cruizer 14.1% 5050 12-29-20
190 Yish 14.0% 5056 12-29-20
191 zapp 13.9% 5061 12-29-20
192 neaolas 13.9% 5064 12-29-20
193 UninspiredUsername 13.8% 5068 12-29-20
194 superiorsonic 13.7% 5075 12-29-20
195 gamefreak1292 13.5% 5087 12-29-20
196 Cooljay 13.1% 5109 12-29-20
197 Sora_yx 13.0% 5112 12-29-20
198 Chaos_Overlord 12.4% 5152 12-29-20
199 Valfore 12.0% 5174 12-29-20
200 GarnetPrincess 11.9% 5181 12-29-20
201 Dage4Aquatic 11.8% 5187 12-29-20
202 ShinigamiMachine 11.5% 5202 12-29-20
203 soniccoloursunleashed 11.5% 5204 12-29-20
204 Sonicsuperstar1 11.0% 5232 12-29-20
205 FocusSight64 10.7% 5248 12-29-20
206 Werey 10.6% 5254 12-29-20
207 booo95 10.6% 5257 12-29-20
208 Mo Player Banned 10.4% 5267 12-29-20
209 SirTobbii 10.4% 5269 12-29-20
210 sonicspeed 10.3% 5274 12-29-20
211 Jua Rever 10.2% 5277 12-29-20
212 Venick409 9.5% 5318 12-29-20
213 nman36 9.4% 5328 12-29-20
213 Sithwarrior26 9.4% 5328 12-29-20
215 ingx24 8.8% 5359 12-29-20
216 CyberShadow 8.8% 5361 12-29-20
217 dekki1234 8.6% 5376 12-29-20
218 Fozer 8.3% 5392 12-29-20
219 Egor305 8.2% 5395 12-29-20
220 Colomb_30 8.1% 5404 12-29-20
221 Regano1000 8.1% 5405 12-29-20
222 1stKirbyever 7.9% 5414 12-29-20
223 Zethor 7.9% 5416 12-29-20
224 nuckrieg 7.6% 5430 12-29-20
225 TimTH 7.6% 5432 12-29-20
226 Brian_pso 7.5% 5438 12-29-20
227 douglas 7.3% 5447 12-29-20
228 TakaRikka 7.2% 5458 12-29-20
229 Th4tN1nj4Turtl3 7.1% 5459 12-29-20
230 Zip 7.0% 5466 12-29-20
231 wheatrich 6.8% 5479 12-29-20
232 Mariosonic15 6.7% 5485 12-29-20
233 MStitomix 6.5% 5497 12-29-20
234 ieatatsonic 6.4% 5500 12-29-20
235 HermitHelmet 6.4% 5501 12-29-20
236 niscool 6.4% 5503 12-29-20
237 Cort_pso 6.1% 5518 12-29-20
238 Got4n 6.1% 5522 12-29-20
239 Triseena 6.0% 5527 12-29-20
240 Jose_15 5.8% 5539 12-29-20
241 Artie 5.6% 5547 12-29-20
242 SuperSonicfan9595 5.6% 5548 12-29-20
243 BlankTH 5.6% 5551 12-29-20
244 Ace747 5.3% 5565 12-29-20
245 HHNNBBHHN 5.3% 5567 12-29-20
246 Richied 5.2% 5573 12-29-20
247 Paixii 5.2% 5576 12-29-20
248 Aiko 5.1% 5581 12-29-20
249 BallzeH 4.8% 5597 12-29-20
249 FSSRandomvids 4.8% 5597 12-29-20
251 slade23 4.8% 5598 12-29-20
252 Jamixesa 4.7% 5601 12-29-20
253 PsyBorg 4.7% 5602 12-29-20
254 Mankster101 4.7% 5604 12-29-20
255 ArcticDragon 4.7% 5605 12-29-20
256 BecauseWarAnvil 4.6% 5610 12-29-20
257 Xandre69 4.6% 5611 12-29-20
258 Nickson98 4.5% 5615 12-29-20
259 Crydio 4.4% 5619 12-29-20
260 TheUltraBlur 4.4% 5623 12-29-20
261 MarewBFN 4.1% 5636 12-29-20
262 stanski 4.1% 5639 12-29-20
263 tal39h 4.0% 5645 12-29-20
264 knuckles_sonic8 3.8% 5653 12-29-20
265 Blue Infamy 3.8% 5656 12-29-20
265 p0ker 3.8% 5656 12-29-20
267 ALundstrom10 3.7% 5659 12-29-20
268 ErrortheCucco 3.6% 5667 12-29-20
269 Rikum22 3.6% 5670 12-29-20
270 ArthurVGCP 3.5% 5674 12-29-20
271 sonic1001 3.4% 5678 12-29-20
272 TheChaosEmeraIds 3.4% 5682 12-29-20
273 AJSIV 3.3% 5683 12-29-20
274 syco1098 3.3% 5684 12-29-20
275 IDGeek121 3.3% 5686 12-29-20
276 Sonic the Hedgehod16 3.3% 5687 12-29-20
277 ASINISTERTACO 3.1% 5694 12-29-20
278 sonicfan9 3.0% 5701 12-29-20
279 themachoman202 2.9% 5711 12-29-20
280 MK 2.8% 5715 12-29-20
281 Fivavoa 2.7% 5720 12-29-20
282 Mr. Jones 2.7% 5722 12-29-20
283 djmat 2.6% 5724 12-29-20
284 arcfx1985 2.6% 5725 12-29-20
284 BlackArmsShadow 2.6% 5725 12-29-20
286 Sonique Hedgehog 2.6% 5728 12-29-20
287 ptorflaxendrosis 2.5% 5730 12-29-20
288 FlandreScarlet9999vr 2.5% 5731 12-29-20
289 Zeldocto 2.4% 5735 12-29-20
290 BeeAwwb 2.4% 5740 12-29-20
291 KaM Mark MaK 2.3% 5743 12-29-20
292 ShadouZaHejjihoggu 2.3% 5746 12-29-20
293 darkstarblaze 2.1% 5753 12-29-20
294 Sonic The Star 2.1% 5755 12-29-20
295 darkersupershadic 2.1% 5756 12-29-20
296 SpiritDragon1995 2.1% 5757 12-29-20
297 sonic29887 2.0% 5762 12-29-20
298 Sarger001 2.0% 5763 12-29-20
299 Grady219 2.0% 5764 12-29-20
300 Jawaah 1.9% 5770 12-29-20
300 shadowblast63 Player Banned 1.9% 5770 12-29-20
302 Antek 1.8% 5774 12-29-20
303 Klaus 1.8% 5776 12-29-20
304 BioShadow 1.7% 5782 12-29-20
305 IcKY 1.5% 5791 12-29-20
306 SkyBon 1.4% 5797 12-29-20
307 Shanekilz 1.3% 5800 12-29-20
308 isaihtb11 1.3% 5801 12-29-20
309 OhNoes! 1.3% 5803 12-29-20
310 zaktu40 1.2% 5806 12-29-20
311 S-MS32X-S 1.2% 5808 12-29-20
312 gaara1234 1.2% 5809 12-29-20
313 MastaToken 1.1% 5816 12-29-20
314 Mister_Slick 1.0% 5819 12-29-20
315 Sonic06Fan 1.0% 5822 12-29-20
316 Rush Hero 0.9% 5825 12-29-20
317 ChaosNexuss 0.9% 5826 12-29-20
318 oTaiIilLsS 0.9% 5829 12-29-20
319 SonicMega167 0.8% 5831 12-29-20
320 SilverK 0.8% 5833 12-29-20
321 gamed00d 0.8% 5834 12-29-20
322 Burningskull123 0.5% 5850 12-29-20
323 Heroes_Hater 0.5% 5852 12-29-20
324 Sonicontherun 0.3% 5861 12-29-20
325 antiwwe 0.2% 5867 12-29-20
326 Iwannabelink 0.2% 5869 12-29-20
327 Genuine Hedgehog 0.1% 5871 12-29-20
328 dragondragon18 0.1% 5875 12-29-20
329 SonicK100 0.1% 5876 12-29-20
330 Tyrouble 0.0% 5881 12-29-20
331 LancexExWx 0.0% 5882 12-29-20
331 neji_hyuuga 0.0% 5882 12-29-20
331 Over 0.0% 5882 12-29-20
331 sdj6707 Player Banned 0.0% 5882 12-29-20
331 Tran Sonic Fan Player Banned 0.0% 5882 12-29-20

This page is using the New Data Table System. [FUTURE]

Game ID: 3 | Category ID: 1
Hits: 3,127 | Hits This Month: 13 | DB Calls: 25 | Mem Usage: 1.05 MB | Time: 0.05s | Printable

The Sonic Center v3.9
Copyright 2003-2011 by The Sonic Center Team.